Time;durP1;ratioP1;P1;durP2;ratioP2;P2;SDS_P1;SDS_P2;PMS_P1;PMS_P2;Temp;Humidity;BMP_temperature;BMP_pressure;BME280_temperature;BME280_humidity;BME280_pressure;Samples;Min_cycle;Max_cycle;Signal;HPM_P1;HPM_P2
2022/10/03 00:01:43;;;;;;;23.65;10.18;;;;;;;;;;5095281;28;20020;-63
2022/10/03 00:04:12;;;;;;;24.65;10.57;;;;;;;;;;5093791;28;20032;-65
2022/10/03 00:06:41;;;;;;;22.48;10.75;;;;;;;;;;5094995;28;20024;-66
2022/10/03 00:09:26;;;;;;;25.23;10.63;;;;;;;;;;5095131;28;20039;-66
2022/10/03 00:12:04;;;;;;;27.10;10.43;;;;;;;;;;5093832;28;20027;-64
2022/10/03 00:14:43;;;;;;;24.30;10.57;;;;;;;;;;5093486;28;20387;-66
2022/10/03 00:17:12;;;;;;;27.67;12.18;;;;;;;;;;5095155;28;20040;-65
2022/10/03 00:19:47;;;;;;;29.42;11.95;;;;;;;;;;5095092;28;20016;-65
2022/10/03 00:22:18;;;;;;;20.88;11.05;;;;;;;;;;5093618;28;20016;-66
2022/10/03 00:24:47;;;;;;;21.45;10.95;;;;;;;;;;5092908;28;20395;-71
2022/10/03 00:27:32;;;;;;;26.63;11.65;;;;;;;;;;5094442;28;20028;-67
2022/10/03 00:30:24;;;;;;;22.27;11.55;;;;;;;;;;5094462;28;20026;-67
2022/10/03 00:33:06;;;;;;;33.83;12.63;;;;;;;;;;5089059;28;20070;-66
2022/10/03 00:35:44;;;;;;;22.58;11.52;;;;;;;;;;5094254;28;20024;-65
2022/10/03 00:38:16;;;;;;;26.40;11.85;;;;;;;;;;5093072;28;20039;-65
2022/10/03 00:40:42;;;;;;;26.65;12.93;;;;;;;;;;5093176;28;20029;-66
2022/10/03 00:43:19;;;;;;;24.65;11.85;;;;;;;;;;5094049;28;20031;-67
2022/10/03 00:45:48;;;;;;;22.27;12.32;;;;;;;;;;5094172;28;20024;-65
2022/10/03 00:48:32;;;;;;;26.60;12.55;;;;;;;;;;5094256;28;20099;-65
2022/10/03 00:51:10;;;;;;;24.25;11.70;;;;;;;;;;5094292;28;20095;-65
2022/10/03 00:53:36;;;;;;;;;;;;;;;;;;5094423;28;20555;-66
2022/10/03 00:56:02;;;;;;;29.00;13.10;;;;;;;;;;5093918;28;19904;-66
2022/10/03 00:58:28;;;;;;;19.35;11.93;;;;;;;;;;5094052;28;20387;-65
2022/10/03 01:00:57;;;;;;;25.73;12.88;;;;;;;;;;5092885;28;20077;-66
2022/10/03 01:03:27;;;;;;;25.13;13.60;;;;;;;;;;5092493;28;20032;-65
2022/10/03 01:06:03;;;;;;;29.65;12.63;;;;;;;;;;5093674;28;20028;-65
2022/10/03 01:08:42;;;;;;;22.98;12.88;;;;;;;;;;5093845;28;20024;-65
2022/10/03 01:11:15;;;;;;;29.73;12.45;;;;;;;;;;5093720;28;20023;-66
2022/10/03 01:13:50;;;;;;;25.10;12.63;;;;;;;;;;5092261;28;20464;-66
2022/10/03 01:16:29;;;;;;;22.30;12.13;;;;;;;;;;5092278;28;20051;-65
2022/10/03 01:19:14;;;;;;;30.40;13.10;;;;;;;;;;5093615;28;20483;-66
2022/10/03 01:21:55;;;;;;;28.65;14.02;;;;;;;;;;5093690;28;20432;-66
2022/10/03 01:24:24;;;;;;;23.73;12.38;;;;;;;;;;5093295;28;20387;-65
2022/10/03 01:26:50;;;;;;;;;;;;;;;;;;5093583;28;20046;-66
2022/10/03 01:32:32;;;;;;;24.15;12.52;;;;;;;;;;5064174;28;20020;-66
2022/10/03 01:35:09;;;;;;;24.08;13.13;;;;;;;;;;5092983;28;20024;-65
2022/10/03 01:37:35;;;;;;;23.55;13.73;;;;;;;;;;5093422;28;20449;-65
2022/10/03 01:40:07;;;;;;;19.42;12.25;;;;;;;;;;5091867;28;20069;-66
2022/10/03 01:42:51;;;;;;;27.00;14.52;;;;;;;;;;5093205;28;20056;-66
2022/10/03 01:45:17;;;;;;;25.85;12.68;;;;;;;;;;5092134;28;20027;-66
2022/10/03 01:47:46;;;;;;;24.95;13.18;;;;;;;;;;5093333;28;20016;-65
2022/10/03 01:50:16;;;;;;;26.08;13.75;;;;;;;;;;5093112;28;20046;-65
2022/10/03 01:52:52;;;;;;;24.13;13.35;;;;;;;;;;5093207;28;20012;-65
2022/10/03 01:55:41;;;;;;;36.13;16.70;;;;;;;;;;5092764;28;20059;-64
2022/10/03 01:58:12;;;;;;;26.52;13.93;;;;;;;;;;5082528;28;20056;-65
2022/10/03 02:01:10;;;;;;;24.98;13.43;;;;;;;;;;5091587;28;20063;-64
2022/10/03 02:03:38;;;;;;;24.75;14.57;;;;;;;;;;5048023;28;20093;-65
2022/10/03 02:06:05;;;;;;;28.08;12.73;;;;;;;;;;5093054;28;20028;-65
2022/10/03 02:08:54;;;;;;;26.08;12.93;;;;;;;;;;5091640;28;20502;-66
2022/10/03 02:11:39;;;;;;;24.95;13.48;;;;;;;;;;5093318;28;20030;-65
2022/10/03 02:14:05;;;;;;;29.38;14.05;;;;;;;;;;5091540;28;20036;-65
2022/10/03 02:16:41;;;;;;;23.60;13.80;;;;;;;;;;5091275;28;20027;-67
2022/10/03 02:19:25;;;;;;;25.83;13.80;;;;;;;;;;5092618;28;20039;-65
2022/10/03 02:21:52;;;;;;;23.15;13.02;;;;;;;;;;5092295;28;20110;-65
2022/10/03 02:24:23;;;;;;;30.95;13.77;;;;;;;;;;5090932;28;20173;-66
2022/10/03 02:26:52;;;;;;;28.35;13.40;;;;;;;;;;5091410;28;20123;-66
2022/10/03 02:29:18;;;;;;;28.70;15.20;;;;;;;;;;5091543;28;20023;-65
2022/10/03 02:31:56;;;;;;;30.33;14.07;;;;;;;;;;5091544;28;20136;-65
2022/10/03 02:34:25;;;;;;;25.80;13.52;;;;;;;;;;5091468;28;20022;-66
2022/10/03 02:36:51;;;;;;;26.88;13.63;;;;;;;;;;5090147;28;20032;-65
2022/10/03 02:39:37;;;;;;;20.70;12.73;;;;;;;;;;5091357;28;20024;-65
2022/10/03 02:42:03;;;;;;;28.65;13.07;;;;;;;;;;5091472;28;20020;-65
2022/10/03 02:44:29;;;;;;;28.08;13.63;;;;;;;;;;5091085;28;20160;-66
2022/10/03 02:47:07;;;;;;;25.33;13.48;;;;;;;;;;5091094;28;20103;-65
2022/10/03 02:49:33;;;;;;;27.30;14.07;;;;;;;;;;5089955;28;20030;-66
2022/10/03 02:52:11;;;;;;;25.60;15.10;;;;;;;;;;5089941;28;20074;-66
2022/10/03 02:54:40;;;;;;;28.33;13.95;;;;;;;;;;5090804;28;20021;-65
2022/10/03 02:57:15;;;;;;;26.92;13.65;;;;;;;;;;5091109;28;20044;-66
2022/10/03 02:59:53;;;;;;;31.17;14.15;;;;;;;;;;5094937;28;20111;-66
2022/10/03 03:02:19;;;;;;;24.80;13.20;;;;;;;;;;5094853;28;20031;-66
2022/10/03 03:04:48;;;;;;;27.75;13.40;;;;;;;;;;5094339;28;20028;-65
2022/10/03 03:07:26;;;;;;;28.65;14.25;;;;;;;;;;5094587;28;20026;-65
2022/10/03 03:10:16;;;;;;;26.73;13.27;;;;;;;;;;5093507;28;20020;-66
2022/10/03 03:13:05;;;;;;;25.85;13.77;;;;;;;;;;5094799;28;20498;-65
2022/10/03 03:15:50;;;;;;;27.42;13.63;;;;;;;;;;5054963;28;20040;-66
2022/10/03 03:18:26;;;;;;;23.90;13.45;;;;;;;;;;5094324;28;20521;-65
2022/10/03 03:21:04;;;;;;;24.20;13.32;;;;;;;;;;5094614;28;20044;-65
2022/10/03 03:23:45;;;;;;;24.38;14.13;;;;;;;;;;5093013;28;20063;-64
2022/10/03 03:26:11;;;;;;;30.67;15.20;;;;;;;;;;5056206;28;1107262;-64
2022/10/03 03:28:56;;;;;;;21.98;12.70;;;;;;;;;;5095447;28;20032;-65
2022/10/03 03:31:42;;;;;;;30.30;14.35;;;;;;;;;;5095987;28;20391;-65
2022/10/03 03:34:08;;;;;;;25.77;13.60;;;;;;;;;;5095374;28;20024;-64
2022/10/03 03:36:57;;;;;;;24.48;13.38;;;;;;;;;;5094189;28;20024;-64
2022/10/03 03:39:32;;;;;;;26.95;14.93;;;;;;;;;;5095438;28;20568;-65
2022/10/03 03:42:01;;;;;;;24.65;12.90;;;;;;;;;;5095625;28;20399;-66
2022/10/03 03:44:42;;;;;;;23.10;12.77;;;;;;;;;;5094300;28;20110;-65
2022/10/03 03:47:16;;;;;;;29.40;13.13;;;;;;;;;;5094216;28;20052;-65
2022/10/03 03:49:42;;;;;;;25.98;12.68;;;;;;;;;;5094360;28;20391;-66
2022/10/03 03:52:47;;;;;;;25.00;16.27;;;;;;;;;;5095724;28;20027;-65
2022/10/03 03:55:28;;;;;;;23.90;13.15;;;;;;;;;;4996637;28;20030;-65
2022/10/03 03:58:17;;;;;;;25.60;13.57;;;;;;;;;;4996830;28;20513;-66
2022/10/03 04:00:44;;;;;;;26.08;13.40;;;;;;;;;;5064019;28;20475;-67
2022/10/03 04:03:11;;;;;;;26.58;14.48;;;;;;;;;;5095215;28;20034;-65
2022/10/03 04:06:04;;;;;;;35.08;15.07;;;;;;;;;;5095643;28;20077;-64
2022/10/03 04:08:49;;;;;;;24.73;13.40;;;;;;;;;;5093570;28;20020;-65
2022/10/03 04:11:48;;;;;;;25.13;13.38;;;;;;;;;;5094768;28;20024;-65
2022/10/03 04:14:20;;;;;;;23.10;13.52;;;;;;;;;;5039266;28;20028;-64
2022/10/03 04:20:10;;;;;;;23.80;13.55;;;;;;;;;;5094518;28;20028;-65
2022/10/03 04:22:52;;;;;;;27.65;13.82;;;;;;;;;;5094308;28;20024;-66
2022/10/03 04:25:19;;;;;;;29.48;16.33;;;;;;;;;;5093903;28;20031;-65
2022/10/03 04:27:59;;;;;;;28.20;16.13;;;;;;;;;;5094549;28;20099;-64
2022/10/03 04:30:34;;;;;;;36.58;15.30;;;;;;;;;;5094384;28;20039;-65
2022/10/03 04:33:11;;;;;;;26.20;14.32;;;;;;;;;;5094544;28;20012;-64
2022/10/03 04:35:37;;;;;;;26.48;14.95;;;;;;;;;;5094430;28;20031;-64
2022/10/03 04:38:15;;;;;;;27.23;15.85;;;;;;;;;;5094172;28;20028;-65
2022/10/03 04:40:41;;;;;;;28.58;14.70;;;;;;;;;;5094327;28;20158;-65
2022/10/03 04:43:10;;;;;;;26.30;16.42;;;;;;;;;;5092646;28;20058;-63
2022/10/03 04:45:40;;;;;;;31.95;16.00;;;;;;;;;;5094112;28;20035;-63
2022/10/03 04:48:15;;;;;;;28.05;15.52;;;;;;;;;;5094086;28;20027;-65
2022/10/03 04:50:59;;;;;;;27.80;15.43;;;;;;;;;;5094004;28;20109;-64
2022/10/03 04:53:45;;;;;;;30.35;15.15;;;;;;;;;;5092468;28;20040;-65
2022/10/03 04:56:23;;;;;;;26.42;15.38;;;;;;;;;;5092462;28;20559;-64
2022/10/03 04:58:54;;;;;;;30.67;16.02;;;;;;;;;;5093847;28;20032;-65
2022/10/03 05:01:23;;;;;;;27.33;14.60;;;;;;;;;;5093953;28;20032;-64
2022/10/03 05:04:09;;;;;;;21.55;14.68;;;;;;;;;;5092166;28;20065;-64
2022/10/03 05:06:46;;;;;;;30.75;16.98;;;;;;;;;;5093767;28;20035;-65
2022/10/03 05:09:22;;;;;;;27.55;17.08;;;;;;;;;;5093540;28;20107;-64
2022/10/03 05:11:55;;;;;;;27.10;17.10;;;;;;;;;;5092471;28;20103;-65
2022/10/03 05:14:40;;;;;;;34.95;18.45;;;;;;;;;;5092272;28;20024;-67
2022/10/03 05:17:30;;;;;;;28.20;16.08;;;;;;;;;;5092232;28;20032;-64
2022/10/03 05:20:29;;;;;;;29.30;15.75;;;;;;;;;;5091287;28;20024;-65
2022/10/03 05:25:52;;;;;;;28.65;17.30;;;;;;;;;;5049215;28;20051;-59
2022/10/03 05:28:18;;;;;;;27.92;16.98;;;;;;;;;;5053281;28;20017;-61
2022/10/03 05:31:02;;;;;;;28.30;16.58;;;;;;;;;;5053299;28;20032;-62
2022/10/03 05:33:33;;;;;;;27.92;16.88;;;;;;;;;;5034962;28;20109;-62
2022/10/03 05:36:07;;;;;;;33.33;17.83;;;;;;;;;;5035471;28;20074;-61
2022/10/03 05:38:45;;;;;;;29.10;18.92;;;;;;;;;;5053324;28;20459;-63
2022/10/03 05:41:17;;;;;;;27.33;16.67;;;;;;;;;;5053168;28;20025;-61
2022/10/03 05:43:43;;;;;;;29.13;16.95;;;;;;;;;;5052610;28;20112;-60
2022/10/03 05:46:15;;;;;;;31.27;17.48;;;;;;;;;;5035003;28;20061;-61
2022/10/03 05:48:55;;;;;;;26.73;17.23;;;;;;;;;;5035517;28;20369;-55
2022/10/03 05:51:40;;;;;;;25.27;17.98;;;;;;;;;;5034517;28;20025;-59
2022/10/03 05:54:17;;;;;;;28.35;17.40;;;;;;;;;;5034450;28;20026;-59
2022/10/03 05:56:43;;;;;;;29.35;18.67;;;;;;;;;;5052861;28;20500;-56
2022/10/03 05:59:09;;;;;;;33.03;20.40;;;;;;;;;;5038408;28;20030;-54
2022/10/03 06:01:38;;;;;;;29.25;17.80;;;;;;;;;;5015117;28;20033;-59
2022/10/03 06:04:07;;;;;;;29.38;17.25;;;;;;;;;;5014875;28;20092;-61
2022/10/03 06:06:42;;;;;;;27.40;17.60;;;;;;;;;;5032611;28;20122;-58
2022/10/03 06:09:26;;;;;;;31.13;17.45;;;;;;;;;;5015110;28;20432;-55
2022/10/03 06:11:58;;;;;;;32.65;17.80;;;;;;;;;;5032578;28;20028;-56
2022/10/03 06:14:32;;;;;;;32.10;18.50;;;;;;;;;;5032108;28;20033;-59
2022/10/03 06:16:58;;;;;;;28.98;18.48;;;;;;;;;;5043426;28;20108;-53
2022/10/03 06:19:44;;;;;;;32.75;19.33;;;;;;;;;;5052513;28;20425;-56
2022/10/03 06:22:16;;;;;;;27.58;18.63;;;;;;;;;;5052376;28;20547;-59
2022/10/03 06:24:51;;;;;;;39.67;20.77;;;;;;;;;;5051942;28;20412;-53
2022/10/03 06:27:36;;;;;;;27.65;18.55;;;;;;;;;;5032385;28;20108;-55
2022/10/03 06:30:12;;;;;;;27.35;18.75;;;;;;;;;;5034362;28;20033;-54
2022/10/03 06:33:07;;;;;;;31.90;18.80;;;;;;;;;;5051815;28;20032;-57
2022/10/03 06:35:51;;;;;;;26.65;18.35;;;;;;;;;;4980983;28;20038;-57
2022/10/03 06:38:26;;;;;;;31.35;18.95;;;;;;;;;;5050803;28;20396;-58
2022/10/03 06:41:11;;;;;;;30.70;19.50;;;;;;;;;;5052123;28;20029;-54
2022/10/03 06:43:37;;;;;;;36.30;19.55;;;;;;;;;;5051687;28;20120;-56
2022/10/03 06:46:12;;;;;;;33.80;20.35;;;;;;;;;;5051906;28;20128;-55
2022/10/03 06:48:57;;;;;;;28.92;20.70;;;;;;;;;;5034079;28;20025;-55
2022/10/03 06:51:23;;;;;;;34.28;19.90;;;;;;;;;;5039031;28;20086;-57
2022/10/03 06:53:55;;;;;;;32.65;20.00;;;;;;;;;;5042188;28;20034;-55
2022/10/03 06:56:37;;;;;;;32.33;19.85;;;;;;;;;;5049311;28;20553;-56
2022/10/03 06:59:22;;;;;;;31.15;22.17;;;;;;;;;;5033139;28;20030;-57
2022/10/03 07:01:49;;;;;;;31.60;20.80;;;;;;;;;;5051939;28;20029;-66
2022/10/03 07:04:18;;;;;;;29.45;21.27;;;;;;;;;;5051298;28;20035;-67
2022/10/03 07:06:53;;;;;;;28.98;21.40;;;;;;;;;;5051289;28;20029;-67
2022/10/03 07:09:38;;;;;;;32.63;22.55;;;;;;;;;;5040237;28;20018;-67
2022/10/03 07:12:24;;;;;;;28.92;21.08;;;;;;;;;;5051462;28;20026;-67
2022/10/03 07:15:14;;;;;;;31.20;22.73;;;;;;;;;;5048876;28;20075;-66
2022/10/03 07:17:54;;;;;;;34.35;20.50;;;;;;;;;;5033354;28;20025;-65
2022/10/03 07:20:29;;;;;;;28.58;19.73;;;;;;;;;;5033329;28;20036;-65
2022/10/03 07:23:12;;;;;;;30.40;18.83;;;;;;;;;;5033483;28;20025;-65
2022/10/03 07:25:47;;;;;;;29.50;20.27;;;;;;;;;;5026664;28;20612;-65
2022/10/03 07:28:16;;;;;;;30.38;20.42;;;;;;;;;;5012325;28;20025;-65
2022/10/03 07:30:51;;;;;;;29.13;19.33;;;;;;;;;;5041683;28;20028;-65
2022/10/03 07:33:26;;;;;;;29.30;21.70;;;;;;;;;;5051210;28;20125;-63
2022/10/03 07:41:37;;;;;;;31.63;18.05;;;;;;;;;;5048819;28;20166;-65
2022/10/03 07:44:06;;;;;;;29.58;16.98;;;;;;;;;;5039223;28;20026;-66
2022/10/03 07:46:38;;;;;;;23.98;14.77;;;;;;;;;;5014835;28;20053;-65
2022/10/03 07:49:13;;;;;;;27.40;16.05;;;;;;;;;;5014669;28;20095;-63
2022/10/03 07:51:42;;;;;;;28.73;15.95;;;;;;;;;;5018800;28;20058;-65
2022/10/03 07:54:17;;;;;;;25.38;16.08;;;;;;;;;;5048852;28;20071;-65
2022/10/03 07:56:47;;;;;;;29.00;17.58;;;;;;;;;;5051323;28;20649;-64
2022/10/03 07:59:22;;;;;;;27.92;15.77;;;;;;;;;;5053248;28;20037;-64
2022/10/03 08:01:57;;;;;;;27.20;15.18;;;;;;;;;;5053493;28;20048;-65
2022/10/03 08:04:42;;;;;;;25.65;14.95;;;;;;;;;;5053216;28;20017;-64
2022/10/03 08:07:14;;;;;;;26.98;14.20;;;;;;;;;;5053318;28;20037;-64
2022/10/03 08:09:47;;;;;;;22.42;13.68;;;;;;;;;;5045130;28;20032;-63
2022/10/03 08:12:13;;;;;;;26.55;14.63;;;;;;;;;;4711703;28;10000651;-63
2022/10/03 08:14:39;;;;;;;23.15;15.25;;;;;;;;;;5033025;28;20640;-63
2022/10/03 08:17:05;;;;;;;25.00;14.48;;;;;;;;;;5027688;28;20030;-64
2022/10/03 08:19:50;;;;;;;22.70;14.43;;;;;;;;;;5044046;28;20108;-63
2022/10/03 08:22:25;;;;;;;25.40;13.25;;;;;;;;;;5033698;28;20115;-63
2022/10/03 08:24:52;;;;;;;24.17;12.63;;;;;;;;;;5050823;28;20032;-64
2022/10/03 08:27:39;;;;;;;26.95;14.18;;;;;;;;;;5053728;28;20036;-63
2022/10/03 08:30:06;;;;;;;24.55;14.63;;;;;;;;;;5053494;28;20491;-58
2022/10/03 08:32:38;;;;;;;27.20;14.93;;;;;;;;;;5036306;28;20374;-63
2022/10/03 08:35:23;;;;;;;24.52;13.63;;;;;;;;;;5042246;28;20024;-64
2022/10/03 08:38:07;;;;;;;25.42;12.27;;;;;;;;;;5035491;28;20032;-63
2022/10/03 08:40:39;;;;;;;20.55;12.45;;;;;;;;;;5051776;28;20025;-63
2022/10/03 08:43:30;;;;;;;22.90;12.45;;;;;;;;;;5047198;28;20376;-62
2022/10/03 08:46:15;;;;;;;23.48;12.70;;;;;;;;;;5035349;28;20029;-64
2022/10/03 08:48:50;;;;;;;20.77;12.32;;;;;;;;;;5053434;28;20500;-63
2022/10/03 08:51:35;;;;;;;29.35;11.98;;;;;;;;;;5035911;28;20048;-61
2022/10/03 08:54:06;;;;;;;22.75;11.13;;;;;;;;;;5034965;28;20063;-63
2022/10/03 08:56:44;;;;;;;22.05;11.75;;;;;;;;;;5053756;28;20120;-65
2022/10/03 08:59:22;;;;;;;23.00;12.73;;;;;;;;;;5054038;28;20082;-62
2022/10/03 09:01:54;;;;;;;23.50;11.55;;;;;;;;;;5053544;28;20052;-64
2022/10/03 09:04:39;;;;;;;21.80;11.10;;;;;;;;;;5023489;28;20091;-64
2022/10/03 09:07:05;;;;;;;19.67;10.00;;;;;;;;;;5054800;28;20492;-65
2022/10/03 09:09:35;;;;;;;20.50;10.60;;;;;;;;;;5037350;28;20503;-65
2022/10/03 09:12:27;;;;;;;28.42;10.57;;;;;;;;;;4703618;28;10000522;-65
2022/10/03 09:15:10;;;;;;;21.20;10.43;;;;;;;;;;5047513;28;20044;-63
2022/10/03 09:17:57;;;;;;;21.38;10.38;;;;;;;;;;5052346;28;20033;-63
2022/10/03 09:20:23;;;;;;;22.63;10.77;;;;;;;;;;5031291;28;20029;-62
2022/10/03 09:23:03;;;;;;;19.42;10.50;;;;;;;;;;5050377;28;20017;-64
2022/10/03 09:25:48;;;;;;;22.20;9.20;;;;;;;;;;5040528;28;20032;-62
2022/10/03 09:28:17;;;;;;;18.75;9.13;;;;;;;;;;5049012;28;20031;-63
2022/10/03 09:31:02;;;;;;;20.30;9.50;;;;;;;;;;5020091;28;20022;-63
2022/10/03 09:33:31;;;;;;;22.27;8.98;;;;;;;;;;5031582;28;20484;-63
2022/10/03 09:36:07;;;;;;;18.25;9.73;;;;;;;;;;5050199;28;20024;-63
2022/10/03 09:38:51;;;;;;;19.60;9.95;;;;;;;;;;5030029;28;20024;-63
2022/10/03 09:41:33;;;;;;;21.60;9.35;;;;;;;;;;5044570;28;20081;-63
2022/10/03 09:44:05;;;;;;;23.92;10.27;;;;;;;;;;5046837;28;20436;-63
2022/10/03 09:46:31;;;;;;;19.30;8.93;;;;;;;;;;5047379;28;20078;-63
2022/10/03 09:49:00;;;;;;;23.35;9.32;;;;;;;;;;5031987;28;20025;-60
2022/10/03 09:51:37;;;;;;;22.65;10.20;;;;;;;;;;5031923;28;20100;-63
2022/10/03 09:54:07;;;;;;;19.55;9.38;;;;;;;;;;5029361;28;20024;-66
2022/10/03 09:56:33;;;;;;;21.83;9.38;;;;;;;;;;5050087;28;20050;-66
2022/10/03 09:59:05;;;;;;;19.50;9.60;;;;;;;;;;5049725;28;20033;-66
2022/10/03 10:01:41;;;;;;;20.27;9.75;;;;;;;;;;5049360;28;20083;-67
2022/10/03 10:04:07;;;;;;;18.45;9.80;;;;;;;;;;5050133;28;20033;-65
2022/10/03 10:06:45;;;;;;;21.90;10.32;;;;;;;;;;5049886;28;20029;-65
2022/10/03 10:09:20;;;;;;;19.83;9.07;;;;;;;;;;5032546;28;20053;-66
2022/10/03 10:11:46;;;;;;;22.08;9.60;;;;;;;;;;5049938;28;20027;-67
2022/10/03 10:14:31;;;;;;;23.05;10.32;;;;;;;;;;5031285;28;20029;-65
2022/10/03 10:17:00;;;;;;;18.83;8.82;;;;;;;;;;5043020;28;20086;-66
2022/10/03 10:19:38;;;;;;;20.23;9.35;;;;;;;;;;5050054;28;20074;-65
2022/10/03 10:22:07;;;;;;;21.38;10.13;;;;;;;;;;5050197;28;20048;-65
2022/10/03 10:24:39;;;;;;;16.55;8.50;;;;;;;;;;5026329;28;20516;-65
2022/10/03 10:27:08;;;;;;;18.33;8.90;;;;;;;;;;5052126;28;20056;-66
2022/10/03 10:29:40;;;;;;;18.35;8.18;;;;;;;;;;5034317;28;20438;-65
2022/10/03 10:32:25;;;;;;;17.85;8.18;;;;;;;;;;5052475;28;20025;-65
2022/10/03 10:34:51;;;;;;;18.88;8.30;;;;;;;;;;5051477;28;20050;-65
2022/10/03 10:37:38;;;;;;;18.90;9.00;;;;;;;;;;5052196;28;20029;-65
2022/10/03 10:40:07;;;;;;;16.85;8.50;;;;;;;;;;5031782;28;20048;-65
2022/10/03 10:42:42;;;;;;;20.58;9.13;;;;;;;;;;5052089;28;20025;-65
2022/10/03 10:45:27;;;;;;;18.58;8.02;;;;;;;;;;5033255;28;20071;-65
2022/10/03 10:47:53;;;;;;;15.98;8.13;;;;;;;;;;5046889;28;20026;-66
2022/10/03 10:50:49;;;;;;;17.08;7.82;;;;;;;;;;5033931;28;20021;-65
2022/10/03 10:53:36;;;;;;;18.58;7.90;;;;;;;;;;5034586;28;20033;-65
2022/10/03 10:56:09;;;;;;;17.33;8.40;;;;;;;;;;4675010;28;10000821;-64
2022/10/03 10:58:35;;;;;;;17.63;8.65;;;;;;;;;;5048577;28;20166;-63
2022/10/03 11:01:19;;;;;;;19.92;9.07;;;;;;;;;;5040964;28;20079;-65
2022/10/03 11:03:49;;;;;;;18.77;8.50;;;;;;;;;;5021702;28;20692;-64
2022/10/03 11:06:18;;;;;;;17.90;8.60;;;;;;;;;;5023009;28;20083;-64
2022/10/03 11:09:03;;;;;;;19.27;9.15;;;;;;;;;;5022493;28;20033;-66
2022/10/03 11:11:38;;;;;;;16.85;8.35;;;;;;;;;;5018897;28;20030;-65
2022/10/03 11:14:25;;;;;;;17.05;8.63;;;;;;;;;;5018177;28;20031;-65
2022/10/03 11:17:00;;;;;;;17.60;8.60;;;;;;;;;;5020850;28;20057;-64
2022/10/03 11:19:45;;;;;;;17.75;8.05;;;;;;;;;;5025983;28;20330;-64
2022/10/03 11:22:15;;;;;;;17.75;8.63;;;;;;;;;;5052947;28;20439;-64
2022/10/03 11:24:50;;;;;;;18.35;8.75;;;;;;;;;;5061054;23;20041;-69
2022/10/03 11:27:46;;;;;;;16.27;8.02;;;;;;;;;;5051317;28;20540;-67
2022/10/03 11:30:31;;;;;;;17.27;8.52;;;;;;;;;;5051213;28;20108;-67
2022/10/03 11:33:23;;;;;;;16.27;8.40;;;;;;;;;;5051146;28;20025;-67
2022/10/03 11:35:49;;;;;;;16.52;8.90;;;;;;;;;;5022824;28;20462;-68
2022/10/03 11:38:21;;;;;;;18.92;9.05;;;;;;;;;;5054029;28;20025;-66
2022/10/03 11:40:48;;;;;;;23.10;9.25;;;;;;;;;;5055086;28;20431;-67
2022/10/03 11:43:32;;;;;;;18.67;9.27;;;;;;;;;;5047685;28;20022;-66
2022/10/03 11:46:17;;;;;;;18.13;9.20;;;;;;;;;;5045383;28;20035;-66
2022/10/03 11:48:51;;;;;;;16.45;8.45;;;;;;;;;;5044674;28;20110;-65
2022/10/03 11:51:17;;;;;;;18.63;8.75;;;;;;;;;;5043714;28;20064;-68
2022/10/03 11:53:43;;;;;;;18.65;9.27;;;;;;;;;;5042791;28;20104;-66
2022/10/03 11:56:15;;;;;;;18.13;9.00;;;;;;;;;;4693902;28;10000409;-66
2022/10/03 11:58:42;;;;;;;19.08;8.90;;;;;;;;;;5042204;28;20126;-66
2022/10/03 12:01:27;;;;;;;16.98;8.60;;;;;;;;;;5043775;28;20022;-66
2022/10/03 12:03:59;;;;;;;19.42;8.23;;;;;;;;;;5041221;28;20017;-67
2022/10/03 12:09:47;;;;;;;16.88;8.25;;;;;;;;;;5045036;28;20031;-66
2022/10/03 12:12:26;;;;;;;16.17;8.30;;;;;;;;;;5039515;28;20029;-68
2022/10/03 12:14:53;;;;;;;20.88;8.50;;;;;;;;;;5040861;28;20025;-66
2022/10/03 12:17:22;;;;;;;18.77;8.60;;;;;;;;;;5039229;28;20052;-66
2022/10/03 12:20:04;;;;;;;16.70;8.55;;;;;;;;;;5039816;28;20025;-67
2022/10/03 12:22:42;;;;;;;17.75;8.15;;;;;;;;;;5039795;28;20556;-66
2022/10/03 12:25:17;;;;;;;17.47;8.20;;;;;;;;;;5038365;28;20033;-66
2022/10/03 12:27:50;;;;;;;16.00;8.18;;;;;;;;;;5051821;28;20078;-66
2022/10/03 12:30:17;;;;;;;17.30;8.40;;;;;;;;;;5049052;28;20048;-67
2022/10/03 12:33:02;;;;;;;16.33;7.87;;;;;;;;;;5041420;28;20416;-65
2022/10/03 12:35:28;;;;;;;15.45;7.70;;;;;;;;;;5041411;28;20053;-66
2022/10/03 12:38:10;;;;;;;17.50;8.57;;;;;;;;;;5040152;28;20022;-66
2022/10/03 12:40:42;;;;;;;18.25;9.50;;;;;;;;;;5040576;28;20493;-66
2022/10/03 12:43:17;;;;;;;18.95;9.63;;;;;;;;;;5041351;28;20022;-68
2022/10/03 12:46:00;;;;;;;17.05;9.25;;;;;;;;;;5033537;28;20440;-67
2022/10/03 12:48:44;;;;;;;17.75;8.68;;;;;;;;;;5033845;28;20048;-67
2022/10/03 12:51:14;;;;;;;17.08;9.48;;;;;;;;;;5032409;28;20092;-67
2022/10/03 12:53:46;;;;;;;18.63;9.60;;;;;;;;;;5033051;28;20041;-66
2022/10/03 12:56:12;;;;;;;17.95;9.20;;;;;;;;;;5033395;28;20032;-64
2022/10/03 12:58:41;;;;;;;15.93;9.48;;;;;;;;;;5032763;28;20402;-65
2022/10/03 13:01:25;;;;;;;15.65;9.82;;;;;;;;;;5033310;28;20033;-65
2022/10/03 13:04:10;;;;;;;16.45;9.60;;;;;;;;;;5032268;28;20033;-67
2022/10/03 13:06:49;;;;;;;15.80;9.80;;;;;;;;;;5033640;28;20029;-66
2022/10/03 13:09:18;;;;;;;16.13;9.30;;;;;;;;;;5038840;28;20020;-66
2022/10/03 13:11:54;;;;;;;16.33;9.07;;;;;;;;;;5051997;28;20025;-67
2022/10/03 13:14:40;;;;;;;17.05;8.90;;;;;;;;;;5051844;28;20032;-65
2022/10/03 13:17:16;;;;;;;17.83;9.10;;;;;;;;;;5053713;28;20025;-66
2022/10/03 13:19:58;;;;;;;16.80;9.82;;;;;;;;;;5053409;28;20021;-65
2022/10/03 13:22:29;;;;;;;16.00;9.00;;;;;;;;;;5051604;28;20078;-66
2022/10/03 13:25:04;;;;;;;16.00;9.23;;;;;;;;;;5052255;28;20059;-67
2022/10/03 13:27:32;;;;;;;17.90;10.18;;;;;;;;;;5053070;28;20325;-67
2022/10/03 13:30:18;;;;;;;18.25;9.63;;;;;;;;;;5051871;28;20025;-67
2022/10/03 13:32:46;;;;;;;17.20;9.10;;;;;;;;;;5053209;28;20020;-65
2022/10/03 13:38:14;;;;;;;15.93;8.68;;;;;;;;;;5053058;28;20055;-65
2022/10/03 13:40:45;;;;;;;17.08;9.73;;;;;;;;;;5051299;28;20025;-66
2022/10/03 13:43:13;;;;;;;17.08;8.90;;;;;;;;;;5052633;28;20025;-66
2022/10/03 13:45:43;;;;;;;16.20;8.90;;;;;;;;;;5051591;28;20028;-65
2022/10/03 13:48:19;;;;;;;18.80;8.77;;;;;;;;;;5052947;28;20013;-66
2022/10/03 13:50:55;;;;;;;17.20;8.77;;;;;;;;;;5051505;28;20009;-66
2022/10/03 13:53:21;;;;;;;18.25;9.20;;;;;;;;;;5051382;28;20125;-66
2022/10/03 13:55:49;;;;;;;15.95;8.88;;;;;;;;;;5052794;28;20078;-65
2022/10/03 13:58:22;;;;;;;16.63;9.03;;;;;;;;;;5051403;28;20035;-66
2022/10/03 14:01:12;;;;;;;17.75;8.85;;;;;;;;;;5051613;28;20031;-66
2022/10/03 14:03:56;;;;;;;17.48;9.40;;;;;;;;;;5052080;28;20446;-66
2022/10/03 14:06:23;;;;;;;17.73;9.13;;;;;;;;;;5030898;28;20053;-67
2022/10/03 14:08:55;;;;;;;17.85;9.00;;;;;;;;;;5032454;28;20347;-66
2022/10/03 14:11:41;;;;;;;16.85;9.30;;;;;;;;;;5032365;28;20052;-69
2022/10/03 14:14:22;;;;;;;16.83;8.85;;;;;;;;;;5030903;28;20028;-67
2022/10/03 14:16:52;;;;;;;16.30;8.77;;;;;;;;;;5032261;28;20032;-66
2022/10/03 14:19:32;;;;;;;17.55;9.23;;;;;;;;;;5032511;28;20029;-66
2022/10/03 14:22:16;;;;;;;18.50;9.60;;;;;;;;;;5032478;28;20030;-66
2022/10/03 14:25:05;;;;;;;23.65;13.85;;;;;;;;;;5030638;28;20355;-67
2022/10/03 14:27:43;;;;;;;21.58;10.32;;;;;;;;;;4348914;28;10000161;-67
2022/10/03 14:30:15;;;;;;;17.25;9.40;;;;;;;;;;5049193;28;20033;-66
2022/10/03 14:32:44;;;;;;;17.75;9.30;;;;;;;;;;5041044;28;20029;-66
2022/10/03 14:35:22;;;;;;;19.52;9.15;;;;;;;;;;5039766;28;20021;-67
2022/10/03 14:37:53;;;;;;;15.52;8.82;;;;;;;;;;5038158;28;20025;-67
2022/10/03 14:40:19;;;;;;;15.82;8.48;;;;;;;;;;5038455;28;20017;-66
2022/10/03 14:43:02;;;;;;;17.88;9.00;;;;;;;;;;5042455;28;20028;-66
2022/10/03 14:45:31;;;;;;;19.38;9.38;;;;;;;;;;5040208;28;20021;-68
2022/10/03 14:48:04;;;;;;;17.08;8.77;;;;;;;;;;5037606;28;20028;-67
2022/10/03 14:50:31;;;;;;;16.67;8.95;;;;;;;;;;5040718;28;20512;-68
2022/10/03 14:53:01;;;;;;;17.85;9.13;;;;;;;;;;5039416;28;20028;-68
2022/10/03 14:55:31;;;;;;;15.27;8.30;;;;;;;;;;5040197;28;20076;-65
2022/10/03 14:58:01;;;;;;;16.40;8.95;;;;;;;;;;5042845;28;20025;-66
2022/10/03 15:00:44;;;;;;;15.43;8.55;;;;;;;;;;4682242;28;9999776;-65
2022/10/03 15:03:16;;;;;;;18.90;9.00;;;;;;;;;;5027157;28;20029;-67
2022/10/03 15:06:01;;;;;;;15.52;8.20;;;;;;;;;;5028565;28;20051;-68
2022/10/03 15:08:38;;;;;;;18.27;9.15;;;;;;;;;;5027442;28;20025;-67
2022/10/03 15:11:05;;;;;;;19.70;9.75;;;;;;;;;;5027503;28;20397;-65
2022/10/03 15:13:34;;;;;;;18.75;8.60;;;;;;;;;;5037685;28;20046;-66
2022/10/03 15:16:01;;;;;;;16.25;9.75;;;;;;;;;;5027238;28;20033;-67
2022/10/03 15:18:28;;;;;;;17.90;9.50;;;;;;;;;;5027566;28;20017;-66
2022/10/03 15:20:54;;;;;;;18.48;9.80;;;;;;;;;;5031200;28;20208;-68
2022/10/03 15:23:46;;;;;;;18.85;10.25;;;;;;;;;;5036572;28;20029;-66
2022/10/03 15:26:17;;;;;;;16.40;8.65;;;;;;;;;;5037172;28;20044;-67
2022/10/03 15:28:58;;;;;;;15.82;8.85;;;;;;;;;;5047263;28;20416;-66
2022/10/03 15:31:38;;;;;;;17.15;9.50;;;;;;;;;;5047124;28;20124;-65